sensor_id;sensor_type;location;lat;lon;timestamp;pressure;altitude;pressure_sealevel;temperature;humidity
49194;BME280;35029;50.804;12.866;2022-09-09T00:01:51;97353.94;;;13.92;89.37
49194;BME280;35029;50.804;12.866;2022-09-09T00:07:05;97352.75;;;13.88;89.54
49194;BME280;35029;50.804;12.866;2022-09-09T00:10:00;97359.81;;;13.82;89.67
49194;BME280;35029;50.804;12.866;2022-09-09T00:15:18;97362.53;;;13.63;91.80
49194;BME280;35029;50.804;12.866;2022-09-09T00:21:28;97349.38;;;13.50;92.82
49194;BME280;35029;50.804;12.866;2022-09-09T00:23:51;97350.94;;;13.39;92.53
49194;BME280;35029;50.804;12.866;2022-09-09T00:31:39;97329.75;;;13.26;93.84
49194;BME280;35029;50.804;12.866;2022-09-09T00:34:11;97335.53;;;13.23;93.54
49194;BME280;35029;50.804;12.866;2022-09-09T00:36:38;97296.94;;;12.95;93.74
49194;BME280;35029;50.804;12.866;2022-09-09T00:39:04;97329.91;;;13.12;94.31
49194;BME280;35029;50.804;12.866;2022-09-09T00:44:37;97325.03;;;13.09;94.14
49194;BME280;35029;50.804;12.866;2022-09-09T00:55:39;97343.84;;;12.89;96.74
49194;BME280;35029;50.804;12.866;2022-09-09T00:58:08;97347.53;;;12.88;97.03
49194;BME280;35029;50.804;12.866;2022-09-09T01:03:19;97338.53;;;12.89;96.90
49194;BME280;35029;50.804;12.866;2022-09-09T01:14:25;97338.94;;;12.67;95.37
49194;BME280;35029;50.804;12.866;2022-09-09T01:16:59;97346.56;;;12.64;95.27
49194;BME280;35029;50.804;12.866;2022-09-09T01:19:47;97353.69;;;12.63;95.29
49194;BME280;35029;50.804;12.866;2022-09-09T01:22:40;97344.59;;;12.52;95.04
49194;BME280;35029;50.804;12.866;2022-09-09T01:25:27;97344.19;;;12.56;96.24
49194;BME280;35029;50.804;12.866;2022-09-09T01:28:10;97348.22;;;12.58;96.00
49194;BME280;35029;50.804;12.866;2022-09-09T01:30:38;97339.22;;;12.59;95.76
49194;BME280;35029;50.804;12.866;2022-09-09T01:33:13;97307.69;;;12.38;95.57
49194;BME280;35029;50.804;12.866;2022-09-09T01:38:12;97341.41;;;12.44;95.09
49194;BME280;35029;50.804;12.866;2022-09-09T01:40:38;97328.56;;;12.41;95.22
49194;BME280;35029;50.804;12.866;2022-09-09T01:43:04;97327.78;;;12.33;94.64
49194;BME280;35029;50.804;12.866;2022-09-09T01:45:32;97335.16;;;12.31;95.28
49194;BME280;35029;50.804;12.866;2022-09-09T01:47:58;97325.56;;;12.30;95.29
49194;BME280;35029;50.804;12.866;2022-09-09T01:50:38;97320.69;;;12.27;95.75
49194;BME280;35029;50.804;12.866;2022-09-09T01:53:04;97321.88;;;12.31;95.71
49194;BME280;35029;50.804;12.866;2022-09-09T01:55:38;97332.50;;;12.31;95.83
49194;BME280;35029;50.804;12.866;2022-09-09T01:58:28;97332.50;;;12.31;95.20
49194;BME280;35029;50.804;12.866;2022-09-09T02:01:31;97322.28;;;12.28;95.03
49194;BME280;35029;50.804;12.866;2022-09-09T02:04:08;97330.06;;;12.30;94.77
49194;BME280;35029;50.804;12.866;2022-09-09T02:06:40;97331.91;;;12.29;95.38
49194;BME280;35029;50.804;12.866;2022-09-09T02:09:24;97328.03;;;12.25;95.13
49194;BME280;35029;50.804;12.866;2022-09-09T02:12:00;97325.66;;;12.17;95.32
49194;BME280;35029;50.804;12.866;2022-09-09T02:14:53;97322.78;;;12.18;96.06
49194;BME280;35029;50.804;12.866;2022-09-09T02:17:31;97327.28;;;12.18;96.57
49194;BME280;35029;50.804;12.866;2022-09-09T02:20:13;97327.09;;;12.13;96.43
49194;BME280;35029;50.804;12.866;2022-09-09T02:22:50;97323.88;;;12.11;96.06
49194;BME280;35029;50.804;12.866;2022-09-09T02:25:22;97319.78;;;12.08;97.19
49194;BME280;35029;50.804;12.866;2022-09-09T02:27:51;97334.50;;;12.11;96.46
49194;BME280;35029;50.804;12.866;2022-09-09T02:30:18;97324.44;;;12.13;96.92
49194;BME280;35029;50.804;12.866;2022-09-09T02:32:54;97326.09;;;12.14;97.02
49194;BME280;35029;50.804;12.866;2022-09-09T02:35:27;97305.16;;;11.99;96.94
49194;BME280;35029;50.804;12.866;2022-09-09T02:37:55;97335.97;;;12.07;97.03
49194;BME280;35029;50.804;12.866;2022-09-09T02:40:22;97326.34;;;12.06;97.16
49194;BME280;35029;50.804;12.866;2022-09-09T02:42:55;97328.56;;;12.09;97.50
49194;BME280;35029;50.804;12.866;2022-09-09T02:45:31;97324.28;;;12.08;97.42
49194;BME280;35029;50.804;12.866;2022-09-09T02:48:26;97327.16;;;12.06;97.86
49194;BME280;35029;50.804;12.866;2022-09-09T02:51:17;97325.47;;;12.12;98.26
49194;BME280;35029;50.804;12.866;2022-09-09T02:54:04;97300.88;;;11.91;98.08
49194;BME280;35029;50.804;12.866;2022-09-09T02:56:40;97318.59;;;12.04;97.73
49194;BME280;35029;50.804;12.866;2022-09-09T02:59:07;97309.66;;;11.98;97.87
49194;BME280;35029;50.804;12.866;2022-09-09T03:01:34;97318.00;;;12.02;97.83
49194;BME280;35029;50.804;12.866;2022-09-09T03:04:02;97313.94;;;11.93;97.56
49194;BME280;35029;50.804;12.866;2022-09-09T03:06:30;97314.56;;;11.95;97.52
49194;BME280;35029;50.804;12.866;2022-09-09T03:09:04;97312.31;;;11.92;98.08
49194;BME280;35029;50.804;12.866;2022-09-09T03:11:36;97318.22;;;11.94;97.77
49194;BME280;35029;50.804;12.866;2022-09-09T03:14:02;97319.66;;;11.90;97.25
49194;BME280;35029;50.804;12.866;2022-09-09T03:16:30;97326.63;;;11.91;96.61
49194;BME280;35029;50.804;12.866;2022-09-09T03:18:56;97323.16;;;11.90;96.49
49194;BME280;35029;50.804;12.866;2022-09-09T03:21:21;97324.19;;;11.89;96.55
49194;BME280;35029;50.804;12.866;2022-09-09T03:23:47;97325.59;;;11.92;96.56
49194;BME280;35029;50.804;12.866;2022-09-09T03:26:14;97325.19;;;11.88;96.53
49194;BME280;35029;50.804;12.866;2022-09-09T03:28:43;97326.84;;;11.89;96.33
49194;BME280;35029;50.804;12.866;2022-09-09T03:31:11;97328.06;;;11.87;96.09
49194;BME280;35029;50.804;12.866;2022-09-09T03:33:39;97323.56;;;11.87;96.75
49194;BME280;35029;50.804;12.866;2022-09-09T03:36:07;97321.94;;;11.86;96.60
49194;BME280;35029;50.804;12.866;2022-09-09T03:38:34;97328.06;;;11.87;97.18
49194;BME280;35029;50.804;12.866;2022-09-09T03:41:00;97315.59;;;11.87;96.20
49194;BME280;35029;50.804;12.866;2022-09-09T03:43:27;97321.09;;;11.92;96.74
49194;BME280;35029;50.804;12.866;2022-09-09T03:45:53;97321.31;;;11.91;96.56
49194;BME280;35029;50.804;12.866;2022-09-09T03:48:24;97325.19;;;11.88;96.56
49194;BME280;35029;50.804;12.866;2022-09-09T03:50:52;97327.47;;;11.84;96.42
49194;BME280;35029;50.804;12.866;2022-09-09T03:53:20;97321.88;;;11.93;96.94
49194;BME280;35029;50.804;12.866;2022-09-09T03:55:48;97325.81;;;11.90;96.25
49194;BME280;35029;50.804;12.866;2022-09-09T03:58:15;97329.50;;;11.89;96.48
49194;BME280;35029;50.804;12.866;2022-09-09T04:00:52;97327.41;;;11.91;96.34
49194;BME280;35029;50.804;12.866;2022-09-09T04:03:18;97324.19;;;11.89;96.43
49194;BME280;35029;50.804;12.866;2022-09-09T04:05:44;97328.66;;;11.89;96.44
49194;BME280;35029;50.804;12.866;2022-09-09T04:08:10;97311.78;;;11.76;96.82
49194;BME280;35029;50.804;12.866;2022-09-09T04:10:36;97322.38;;;11.83;96.84
49194;BME280;35029;50.804;12.866;2022-09-09T04:13:04;97330.13;;;11.84;96.69
49194;BME280;35029;50.804;12.866;2022-09-09T04:15:30;97322.00;;;11.79;96.22
49194;BME280;35029;50.804;12.866;2022-09-09T04:17:56;97316.88;;;11.78;97.00
49194;BME280;35029;50.804;12.866;2022-09-09T04:20:22;97316.88;;;11.78;97.63
49194;BME280;35029;50.804;12.866;2022-09-09T04:22:47;97302.75;;;11.84;97.09
49194;BME280;35029;50.804;12.866;2022-09-09T04:25:13;97303.41;;;11.79;97.14
49194;BME280;35029;50.804;12.866;2022-09-09T04:27:39;97298.50;;;11.76;97.41
49194;BME280;35029;50.804;12.866;2022-09-09T04:30:06;97303.41;;;11.79;97.70
49194;BME280;35029;50.804;12.866;2022-09-09T04:32:34;97314.78;;;11.87;97.91
49194;BME280;35029;50.804;12.866;2022-09-09T04:34:59;97316.63;;;11.86;97.74
49194;BME280;35029;50.804;12.866;2022-09-09T04:37:25;97330.13;;;11.84;97.58
49194;BME280;35029;50.804;12.866;2022-09-09T04:39:51;97323.81;;;11.79;97.34
49194;BME280;35029;50.804;12.866;2022-09-09T04:42:16;97322.94;;;11.92;97.99
49194;BME280;35029;50.804;12.866;2022-09-09T04:44:46;97325.59;;;11.98;97.74
49194;BME280;35029;50.804;12.866;2022-09-09T04:47:11;97322.31;;;11.96;97.75
49194;BME280;35029;50.804;12.866;2022-09-09T04:49:37;97319.22;;;11.99;97.90
49194;BME280;35029;50.804;12.866;2022-09-09T04:52:04;97321.88;;;11.99;98.48
49194;BME280;35029;50.804;12.866;2022-09-09T04:54:30;97320.66;;;12.02;98.29
49194;BME280;35029;50.804;12.866;2022-09-09T04:56:56;97325.38;;;12.00;98.11
49194;BME280;35029;50.804;12.866;2022-09-09T04:59:22;97322.94;;;11.98;98.23
49194;BME280;35029;50.804;12.866;2022-09-09T05:01:51;97322.50;;;12.02;98.86
49194;BME280;35029;50.804;12.866;2022-09-09T05:04:19;97334.75;;;12.03;98.93
49194;BME280;35029;50.804;12.866;2022-09-09T05:06:45;97329.28;;;11.97;99.26
49194;BME280;35029;50.804;12.866;2022-09-09T05:09:12;97333.75;;;11.97;98.88
49194;BME280;35029;50.804;12.866;2022-09-09T05:11:37;97336.00;;;12.00;99.68
49194;BME280;35029;50.804;12.866;2022-09-09T05:14:21;97334.09;;;12.07;99.50
49194;BME280;35029;50.804;12.866;2022-09-09T05:16:48;97333.09;;;12.08;99.34
49194;BME280;35029;50.804;12.866;2022-09-09T05:19:15;97328.53;;;12.15;99.53
49194;BME280;35029;50.804;12.866;2022-09-09T05:21:46;97329.31;;;12.16;99.45
49194;BME280;35029;50.804;12.866;2022-09-09T05:24:14;97337.91;;;12.18;99.25
49194;BME280;35029;50.804;12.866;2022-09-09T05:26:41;97345.09;;;12.17;99.30
49194;BME280;35029;50.804;12.866;2022-09-09T05:29:07;97342.44;;;12.17;99.62
49194;BME280;35029;50.804;12.866;2022-09-09T05:31:33;97346.47;;;12.20;100.00
49194;BME280;35029;50.804;12.866;2022-09-09T05:34:02;97339.69;;;12.24;100.00
49194;BME280;35029;50.804;12.866;2022-09-09T05:36:28;97343.53;;;12.28;99.90
49194;BME280;35029;50.804;12.866;2022-09-09T05:38:55;97340.03;;;12.34;99.28
49194;BME280;35029;50.804;12.866;2022-09-09T05:41:21;97341.41;;;12.44;100.00
49194;BME280;35029;50.804;12.866;2022-09-09T05:43:49;97335.19;;;12.50;99.67
49194;BME280;35029;50.804;12.866;2022-09-09T05:46:18;97342.09;;;12.58;99.39
49194;BME280;35029;50.804;12.866;2022-09-09T05:48:47;97339.66;;;12.56;99.03
49194;BME280;35029;50.804;12.866;2022-09-09T05:51:16;97335.97;;;12.57;100.00
49194;BME280;35029;50.804;12.866;2022-09-09T05:53:43;97340.25;;;12.58;100.00
49194;BME280;35029;50.804;12.866;2022-09-09T05:56:16;97343.69;;;12.65;100.00
49194;BME280;35029;50.804;12.866;2022-09-09T05:58:43;97343.97;;;12.76;100.00
49194;BME280;35029;50.804;12.866;2022-09-09T06:03:47;97352.78;;;12.95;100.00
49194;BME280;35029;50.804;12.866;2022-09-09T06:06:22;97353.34;;;13.04;100.00
49194;BME280;35029;50.804;12.866;2022-09-09T06:08:50;97354.66;;;13.13;100.00
49194;BME280;35029;50.804;12.866;2022-09-09T06:13:42;97346.22;;;13.34;100.00
49194;BME280;35029;50.804;12.866;2022-09-09T06:16:13;97354.00;;;13.55;100.00
49194;BME280;35029;50.804;12.866;2022-09-09T06:18:41;97355.13;;;13.65;100.00
49194;BME280;35029;50.804;12.866;2022-09-09T06:23:42;97355.09;;;13.84;100.00
49194;BME280;35029;50.804;12.866;2022-09-09T06:26:22;97352.69;;;13.94;100.00
49194;BME280;35029;50.804;12.866;2022-09-09T06:28:50;97348.66;;;14.03;100.00
49194;BME280;35029;50.804;12.866;2022-09-09T06:31:20;97350.72;;;14.01;100.00
49194;BME280;35029;50.804;12.866;2022-09-09T06:33:51;97349.69;;;14.02;100.00
49194;BME280;35029;50.804;12.866;2022-09-09T06:36:20;97362.81;;;14.16;100.00
49194;BME280;35029;50.804;12.866;2022-09-09T06:38:46;97349.38;;;14.11;100.00
49194;BME280;35029;50.804;12.866;2022-09-09T06:41:16;97350.44;;;14.10;100.00
49194;BME280;35029;50.804;12.866;2022-09-09T06:43:44;97359.47;;;14.20;100.00
49194;BME280;35029;50.804;12.866;2022-09-09T06:46:15;97343.75;;;14.31;100.00
49194;BME280;35029;50.804;12.866;2022-09-09T06:48:42;97349.34;;;14.41;100.00
49194;BME280;35029;50.804;12.866;2022-09-09T06:51:21;97348.28;;;14.54;100.00
49194;BME280;35029;50.804;12.866;2022-09-09T06:53:50;97346.47;;;14.66;100.00
49194;BME280;35029;50.804;12.866;2022-09-09T06:58:42;97344.63;;;14.79;100.00
49194;BME280;35029;50.804;12.866;2022-09-09T07:01:13;97349.03;;;14.85;100.00
49194;BME280;35029;50.804;12.866;2022-09-09T07:03:40;97349.50;;;14.94;100.00
49194;BME280;35029;50.804;12.866;2022-09-09T07:06:07;97356.91;;;15.03;100.00
49194;BME280;35029;50.804;12.866;2022-09-09T07:08:39;97356.00;;;15.10;100.00
49194;BME280;35029;50.804;12.866;2022-09-09T07:11:07;97352.97;;;15.18;100.00
49194;BME280;35029;50.804;12.866;2022-09-09T07:13:35;97352.25;;;15.23;100.00
49194;BME280;35029;50.804;12.866;2022-09-09T07:16:06;97347.97;;;15.21;100.00
49194;BME280;35029;50.804;12.866;2022-09-09T07:18:32;97354.00;;;15.29;100.00
49194;BME280;35029;50.804;12.866;2022-09-09T07:20:59;97358.38;;;15.35;100.00
49194;BME280;35029;50.804;12.866;2022-09-09T07:23:25;97353.38;;;15.38;100.00
49194;BME280;35029;50.804;12.866;2022-09-09T07:25:51;97357.31;;;15.48;100.00
49194;BME280;35029;50.804;12.866;2022-09-09T07:28:19;97353.44;;;15.55;100.00
49194;BME280;35029;50.804;12.866;2022-09-09T07:30:56;97364.34;;;15.66;100.00
49194;BME280;35029;50.804;12.866;2022-09-09T07:33:23;97346.69;;;15.65;100.00
49194;BME280;35029;50.804;12.866;2022-09-09T07:35:49;97365.25;;;15.83;100.00
49194;BME280;35029;50.804;12.866;2022-09-09T07:38:15;97368.34;;;15.92;100.00
49194;BME280;35029;50.804;12.866;2022-09-09T07:40:42;97363.09;;;15.97;100.00
49194;BME280;35029;50.804;12.866;2022-09-09T07:43:16;97363.44;;;16.01;100.00
49194;BME280;35029;50.804;12.866;2022-09-09T07:45:44;97362.94;;;16.04;100.00
49194;BME280;35029;50.804;12.866;2022-09-09T07:48:09;97373.09;;;16.19;100.00
49194;BME280;35029;50.804;12.866;2022-09-09T07:50:36;97362.75;;;16.22;95.66
49194;BME280;35029;50.804;12.866;2022-09-09T07:53:02;97368.84;;;16.35;95.85
49194;BME280;35029;50.804;12.866;2022-09-09T07:55:30;97373.31;;;16.46;95.58
49194;BME280;35029;50.804;12.866;2022-09-09T07:57:56;97380.69;;;16.56;92.56
49194;BME280;35029;50.804;12.866;2022-09-09T08:00:22;97384.16;;;16.73;88.33
49194;BME280;35029;50.804;12.866;2022-09-09T08:02:52;97381.16;;;16.87;86.03
49194;BME280;35029;50.804;12.866;2022-09-09T08:05:19;97375.81;;;17.04;83.71
49194;BME280;35029;50.804;12.866;2022-09-09T08:07:47;97382.88;;;17.10;84.67
49194;BME280;35029;50.804;12.866;2022-09-09T08:10:14;97383.16;;;17.14;84.86
49194;BME280;35029;50.804;12.866;2022-09-09T08:12:42;97378.72;;;17.19;85.01
49194;BME280;35029;50.804;12.866;2022-09-09T08:15:08;97383.06;;;17.26;84.59
49194;BME280;35029;50.804;12.866;2022-09-09T08:17:33;97380.78;;;17.34;82.07
49194;BME280;35029;50.804;12.866;2022-09-09T08:20:03;97386.03;;;17.46;84.01
49194;BME280;35029;50.804;12.866;2022-09-09T08:22:32;97385.91;;;17.58;80.02
49194;BME280;35029;50.804;12.866;2022-09-09T08:24:58;97388.75;;;17.73;80.79
49194;BME280;35029;50.804;12.866;2022-09-09T08:27:23;97389.34;;;17.76;80.57
49194;BME280;35029;50.804;12.866;2022-09-09T08:29:50;97375.34;;;17.73;80.86
49194;BME280;35029;50.804;12.866;2022-09-09T08:32:16;97373.53;;;17.79;82.05
49194;BME280;35029;50.804;12.866;2022-09-09T08:34:43;97382.16;;;17.81;80.66
49194;BME280;35029;50.804;12.866;2022-09-09T08:37:14;97379.91;;;17.95;79.48
49194;BME280;35029;50.804;12.866;2022-09-09T08:39:40;97386.56;;;18.15;76.48
49194;BME280;35029;50.804;12.866;2022-09-09T08:42:23;97389.19;;;18.37;74.80
49194;BME280;35029;50.804;12.866;2022-09-09T08:45:20;97378.91;;;18.88;75.62
49194;BME280;35029;50.804;12.866;2022-09-09T08:50:44;97394.47;;;18.59;69.42
49194;BME280;35029;50.804;12.866;2022-09-09T08:53:22;97391.78;;;18.59;71.27
49194;BME280;35029;50.804;12.866;2022-09-09T08:55:54;97400.88;;;18.53;72.88
49194;BME280;35029;50.804;12.866;2022-09-09T08:58:48;97391.28;;;18.95;70.63
49194;BME280;35029;50.804;12.866;2022-09-09T09:01:32;97381.00;;;19.24;69.80
49194;BME280;35029;50.804;12.866;2022-09-09T09:07:29;97387.84;;;19.52;69.00
49194;BME280;35029;50.804;12.866;2022-09-09T09:12:42;97386.59;;;19.17;67.42
49194;BME280;35029;50.804;12.866;2022-09-09T09:15:21;97384.19;;;19.21;66.70
49194;BME280;35029;50.804;12.866;2022-09-09T09:17:50;97383.34;;;19.15;66.41
49194;BME280;35029;50.804;12.866;2022-09-09T09:20:20;97382.00;;;19.07;67.91
49194;BME280;35029;50.804;12.866;2022-09-09T09:22:51;97379.38;;;19.23;66.56
49194;BME280;35029;50.804;12.866;2022-09-09T09:25:34;97374.28;;;19.21;66.16
49194;BME280;35029;50.804;12.866;2022-09-09T09:28:24;97378.22;;;19.08;68.37
49194;BME280;35029;50.804;12.866;2022-09-09T09:30:56;97379.78;;;18.99;68.70
49194;BME280;35029;50.804;12.866;2022-09-09T09:35:50;97387.63;;;18.73;69.55
49194;BME280;35029;50.804;12.866;2022-09-09T09:38:20;97377.94;;;18.72;69.47
49194;BME280;35029;50.804;12.866;2022-09-09T09:40:50;97374.50;;;19.15;69.19
49194;BME280;35029;50.804;12.866;2022-09-09T09:43:37;97377.25;;;19.30;67.81
49194;BME280;35029;50.804;12.866;2022-09-09T09:46:23;97377.81;;;19.32;68.92
49194;BME280;35029;50.804;12.866;2022-09-09T09:49:04;97376.44;;;19.24;70.33
49194;BME280;35029;50.804;12.866;2022-09-09T09:51:32;97373.38;;;19.05;72.58
49194;BME280;35029;50.804;12.866;2022-09-09T09:54:09;97373.69;;;18.77;71.33
49194;BME280;35029;50.804;12.866;2022-09-09T09:56:40;97374.53;;;19.20;69.09
49194;BME280;35029;50.804;12.866;2022-09-09T09:59:37;97373.06;;;19.55;69.57
49194;BME280;35029;50.804;12.866;2022-09-09T10:02:38;97367.56;;;19.82;69.05
49194;BME280;35029;50.804;12.866;2022-09-09T10:05:30;97381.38;;;20.12;66.81
49194;BME280;35029;50.804;12.866;2022-09-09T10:08:13;97366.31;;;20.36;62.63
49194;BME280;35029;50.804;12.866;2022-09-09T10:19:12;97384.66;;;20.50;56.31
49194;BME280;35029;50.804;12.866;2022-09-09T10:43:21;97361.88;;;21.49;55.19
49194;BME280;35029;50.804;12.866;2022-09-09T10:52:01;97370.00;;;21.43;55.66
49194;BME280;35029;50.804;12.866;2022-09-09T10:59:52;97369.00;;;20.52;55.86
49194;BME280;35029;50.804;12.866;2022-09-09T11:02:28;97358.22;;;21.14;55.53
49194;BME280;35029;50.804;12.866;2022-09-09T11:05:08;97358.41;;;21.53;53.93
49194;BME280;35029;50.804;12.866;2022-09-09T11:07:55;97365.66;;;21.53;52.21
49194;BME280;35029;50.804;12.866;2022-09-09T11:10:33;97346.16;;;21.71;53.04
49194;BME280;35029;50.804;12.866;2022-09-09T11:13:03;97353.56;;;22.00;52.69
49194;BME280;35029;50.804;12.866;2022-09-09T11:15:38;97358.59;;;21.72;53.22
49194;BME280;35029;50.804;12.866;2022-09-09T11:18:07;97362.44;;;21.56;53.07
49194;BME280;35029;50.804;12.866;2022-09-09T11:20:35;97354.41;;;21.30;53.51
49194;BME280;35029;50.804;12.866;2022-09-09T11:23:24;97355.41;;;21.50;53.75
49194;BME280;35029;50.804;12.866;2022-09-09T11:25:59;97356.13;;;21.76;53.85
49194;BME280;35029;50.804;12.866;2022-09-09T11:33:59;97351.00;;;22.19;50.81
49194;BME280;35029;50.804;12.866;2022-09-09T11:41:48;97363.84;;;21.22;53.86
49194;BME280;35029;50.804;12.866;2022-09-09T11:44:29;97356.69;;;20.71;55.66
49194;BME280;35029;50.804;12.866;2022-09-09T11:46:56;97356.13;;;20.59;57.28
49194;BME280;35029;50.804;12.866;2022-09-09T11:49:30;97349.28;;;21.34;57.34
49194;BME280;35029;50.804;12.866;2022-09-09T11:52:40;97353.50;;;21.60;55.38
49194;BME280;35029;50.804;12.866;2022-09-09T11:55:08;97352.78;;;21.29;55.61
49194;BME280;35029;50.804;12.866;2022-09-09T11:57:35;97345.78;;;21.93;55.02
49194;BME280;35029;50.804;12.866;2022-09-09T12:00:02;97353.97;;;22.23;54.80
49194;BME280;35029;50.804;12.866;2022-09-09T12:02:48;97343.63;;;22.70;53.63
49194;BME280;35029;50.804;12.866;2022-09-09T12:05:15;97348.41;;;22.49;55.02
49194;BME280;35029;50.804;12.866;2022-09-09T12:10:39;97342.50;;;21.41;56.21
49194;BME280;35029;50.804;12.866;2022-09-09T12:13:20;97343.94;;;21.84;54.38
49194;BME280;35029;50.804;12.866;2022-09-09T12:15:59;97341.63;;;21.67;55.36
49194;BME280;35029;50.804;12.866;2022-09-09T12:18:39;97335.44;;;21.51;55.75
49194;BME280;35029;50.804;12.866;2022-09-09T12:21:39;97336.53;;;21.50;53.15
49194;BME280;35029;50.804;12.866;2022-09-09T12:24:11;97334.50;;;21.86;53.58
49194;BME280;35029;50.804;12.866;2022-09-09T12:26:43;97330.44;;;21.89;54.68
49194;BME280;35029;50.804;12.866;2022-09-09T12:29:23;97321.63;;;22.52;50.05
49194;BME280;35029;50.804;12.866;2022-09-09T12:32:04;97318.91;;;22.87;50.98
49194;BME280;35029;50.804;12.866;2022-09-09T12:39:58;97304.50;;;23.21;47.60
49194;BME280;35029;50.804;12.866;2022-09-09T12:42:25;97298.91;;;23.36;47.50
49194;BME280;35029;50.804;12.866;2022-09-09T12:45:02;97307.94;;;23.51;45.65
49194;BME280;35029;50.804;12.866;2022-09-09T12:47:45;97302.63;;;23.65;45.38
49194;BME280;35029;50.804;12.866;2022-09-09T12:50:23;97303.28;;;23.75;45.75
49194;BME280;35029;50.804;12.866;2022-09-09T12:53:12;97295.56;;;23.44;46.46
49194;BME280;35029;50.804;12.866;2022-09-09T12:55:57;97296.22;;;23.07;46.82
49194;BME280;35029;50.804;12.866;2022-09-09T12:58:23;97287.56;;;23.10;45.25
49194;BME280;35029;50.804;12.866;2022-09-09T13:00:54;97297.53;;;23.39;47.17
49194;BME280;35029;50.804;12.866;2022-09-09T13:03:23;97305.00;;;23.47;45.38
49194;BME280;35029;50.804;12.866;2022-09-09T13:05:51;97296.59;;;23.49;45.12
49194;BME280;35029;50.804;12.866;2022-09-09T13:08:17;97299.03;;;23.69;44.14
49194;BME280;35029;50.804;12.866;2022-09-09T13:11:00;97304.47;;;23.45;44.58
49194;BME280;35029;50.804;12.866;2022-09-09T13:13:29;97298.44;;;23.72;44.81
49194;BME280;35029;50.804;12.866;2022-09-09T13:15:58;97300.56;;;23.08;44.78
49194;BME280;35029;50.804;12.866;2022-09-09T13:18:38;97301.66;;;22.83;47.00
49194;BME280;35029;50.804;12.866;2022-09-09T13:21:06;97304.34;;;22.53;47.96
49194;BME280;35029;50.804;12.866;2022-09-09T13:23:34;97313.47;;;22.23;49.07
49194;BME280;35029;50.804;12.866;2022-09-09T13:26:21;97312.28;;;22.00;50.05
49194;BME280;35029;50.804;12.866;2022-09-09T13:28:48;97287.25;;;21.94;50.63
49194;BME280;35029;50.804;12.866;2022-09-09T13:31:23;97310.84;;;22.12;51.59
49194;BME280;35029;50.804;12.866;2022-09-09T13:33:48;97309.47;;;22.55;50.89
49194;BME280;35029;50.804;12.866;2022-09-09T13:36:14;97303.28;;;23.32;48.27
49194;BME280;35029;50.804;12.866;2022-09-09T13:41:22;97287.56;;;23.96;46.58
49194;BME280;35029;50.804;12.866;2022-09-09T13:43:49;97285.81;;;24.06;44.85
49194;BME280;35029;50.804;12.866;2022-09-09T13:51:36;97277.53;;;24.16;44.71
49194;BME280;35029;50.804;12.866;2022-09-09T13:54:06;97296.94;;;24.04;43.98
49194;BME280;35029;50.804;12.866;2022-09-09T13:56:35;97278.41;;;24.11;44.91
49194;BME280;35029;50.804;12.866;2022-09-09T13:59:02;97281.56;;;24.19;42.93
49194;BME280;35029;50.804;12.866;2022-09-09T14:01:27;97278.41;;;23.73;43.16
49194;BME280;35029;50.804;12.866;2022-09-09T14:03:53;97270.66;;;24.05;44.52
49194;BME280;35029;50.804;12.866;2022-09-09T14:06:19;97267.63;;;24.25;44.40
49194;BME280;35029;50.804;12.866;2022-09-09T14:08:48;97267.28;;;24.46;44.83
49194;BME280;35029;50.804;12.866;2022-09-09T14:11:15;97250.75;;;24.47;45.82
49194;BME280;35029;50.804;12.866;2022-09-09T14:13:41;97267.25;;;24.65;45.77
49194;BME280;35029;50.804;12.866;2022-09-09T14:16:06;97260.16;;;24.69;44.96
49194;BME280;35029;50.804;12.866;2022-09-09T14:18:31;97263.69;;;24.51;42.71
49194;BME280;35029;50.804;12.866;2022-09-09T14:20:57;97268.22;;;23.65;42.58
49194;BME280;35029;50.804;12.866;2022-09-09T14:23:24;97276.00;;;23.72;45.28
49194;BME280;35029;50.804;12.866;2022-09-09T14:25:51;97282.50;;;23.71;44.77
49194;BME280;35029;50.804;12.866;2022-09-09T14:28:17;97271.69;;;23.90;45.30
49194;BME280;35029;50.804;12.866;2022-09-09T14:30:43;97273.28;;;24.10;45.17
49194;BME280;35029;50.804;12.866;2022-09-09T14:33:14;97268.66;;;23.34;42.00
49194;BME280;35029;50.804;12.866;2022-09-09T14:35:41;97265.06;;;22.66;43.93
49194;BME280;35029;50.804;12.866;2022-09-09T14:38:07;97265.19;;;22.51;44.61
49194;BME280;35029;50.804;12.866;2022-09-09T14:40:35;97267.47;;;22.33;44.06
49194;BME280;35029;50.804;12.866;2022-09-09T14:43:01;97266.59;;;22.08;45.62
49194;BME280;35029;50.804;12.866;2022-09-09T14:45:27;97276.44;;;21.94;46.32
49194;BME280;35029;50.804;12.866;2022-09-09T14:47:53;97278.97;;;21.80;47.11
49194;BME280;35029;50.804;12.866;2022-09-09T14:50:20;97284.41;;;21.75;48.80
49194;BME280;35029;50.804;12.866;2022-09-09T14:52:46;97287.97;;;21.65;49.99
49194;BME280;35029;50.804;12.866;2022-09-09T14:55:12;97297.16;;;21.49;48.58
49194;BME280;35029;50.804;12.866;2022-09-09T14:57:38;97299.16;;;21.27;50.09
49194;BME280;35029;50.804;12.866;2022-09-09T15:00:06;97300.03;;;21.07;49.57
49194;BME280;35029;50.804;12.866;2022-09-09T15:02:32;97304.38;;;20.93;50.57
49194;BME280;35029;50.804;12.866;2022-09-09T15:04:58;97309.25;;;20.81;49.14
49194;BME280;35029;50.804;12.866;2022-09-09T15:07:24;97299.28;;;20.60;50.42
49194;BME280;35029;50.804;12.866;2022-09-09T15:09:50;97310.31;;;20.64;49.25
49194;BME280;35029;50.804;12.866;2022-09-09T15:12:15;97304.69;;;20.50;50.51
49194;BME280;35029;50.804;12.866;2022-09-09T15:14:44;97288.25;;;20.36;49.18
49194;BME280;35029;50.804;12.866;2022-09-09T15:17:10;97299.56;;;20.33;49.17
49194;BME280;35029;50.804;12.866;2022-09-09T15:19:36;97299.28;;;20.24;50.32